Littleton, West Virginia
Current Conditions -  °F | °C
As of 9:32 AM on Tuesday 27 Jan 2015 (Local Time) from KCKB Reporting Station
Light Snow Light Snow  
Wind Chill: -11°   Ceiling: 3700
Heat Index: -7°   Visibility: 2mi
Dew Point: -9°   Wind: 6mph
Humidity: 81%   Direction: 280°W
Pressure: 29.94"   Gusts: NA
Location:  39.7°N, 80.52°W
Report Text: KCKB 271432Z 28005KT 2SM -SN SCT014 SCT027 OVC037 M07/M09 A2994 RMK AO2 P0000 T10671094
Loading
Personal Weather Stations






























Interactive Weather Map New forecast layout! Learn more

10-Day Weather Forecast

Advertisements
Track Severe Weather on mobile